Time;durP1;ratioP1;P1;durP2;ratioP2;P2;SDS_P1;SDS_P2;PMS_P1;PMS_P2;Temp;Humidity;BMP_temperature;BMP_pressure;BME280_temperature;BME280_humidity;BME280_pressure;Samples;Min_cycle;Max_cycle;Signal;HPM_P1;HPM_P2
2023/01/09 00:02:01;;;;;;;6.38;4.40;;;26.10;93.50;;;;;;5126296;28;20083;-58
2023/01/09 00:04:27;;;;;;;6.38;4.15;;;26.10;93.60;;;;;;5126184;28;20062;-55
2023/01/09 00:06:54;;;;;;;6.20;3.80;;;26.10;93.60;;;;;;5125235;28;20019;-61
2023/01/09 00:09:23;;;;;;;5.63;3.63;;;26.10;93.60;;;;;;5126311;28;20035;-58
2023/01/09 00:11:50;;;;;;;7.03;3.63;;;26.10;93.70;;;;;;5126029;28;20058;-58
2023/01/09 00:14:18;;;;;;;8.07;3.67;;;26.10;93.70;;;;;;5126204;28;20023;-55
2023/01/09 00:16:45;;;;;;;5.55;3.38;;;26.10;93.70;;;;;;5125943;28;20047;-56
2023/01/09 00:19:12;;;;;;;5.68;3.65;;;26.10;93.70;;;;;;5126022;28;20295;-56
2023/01/09 00:21:38;;;;;;;7.85;3.63;;;26.00;93.70;;;;;;5125667;28;20027;-57
2023/01/09 00:24:05;;;;;;;5.38;3.33;;;26.10;93.80;;;;;;5126206;28;20149;-62
2023/01/09 00:26:32;;;;;;;7.35;3.00;;;26.10;93.80;;;;;;5125693;28;20012;-55
2023/01/09 00:28:59;;;;;;;6.88;3.55;;;26.00;93.80;;;;;;5125710;28;20058;-56
2023/01/09 00:31:26;;;;;;;7.95;4.07;;;26.00;93.80;;;;;;5125536;28;20016;-59
2023/01/09 00:33:58;;;;;;;7.25;4.00;;;26.00;93.80;;;;;;5125898;28;20090;-60
2023/01/09 00:36:25;;;;;;;6.95;3.83;;;26.00;93.80;;;;;;5125401;28;20036;-57
2023/01/09 00:38:52;;;;;;;7.68;3.85;;;26.00;93.80;;;;;;5125896;28;20050;-56
2023/01/09 00:41:46;;;;;;;6.95;4.20;;;26.00;93.90;;;;;;5125452;28;20328;-57
2023/01/09 00:44:27;;;;;;;5.72;3.95;;;26.00;94.00;;;;;;5123096;28;20039;-57
2023/01/09 00:47:00;;;;;;;8.35;4.40;;;26.00;94.00;;;;;;5125199;28;20068;-57
2023/01/09 00:49:30;;;;;;;7.80;4.43;;;26.00;94.00;;;;;;5125677;28;20276;-59
2023/01/09 00:51:56;;;;;;;6.50;4.60;;;25.90;94.00;;;;;;5125236;28;20024;-56
2023/01/09 00:54:23;;;;;;;7.90;3.90;;;26.00;94.00;;;;;;5125914;28;20016;-60
2023/01/09 00:56:50;;;;;;;8.23;5.65;;;25.90;94.00;;;;;;5136022;27;20086;-59
2023/01/09 00:59:17;;;;;;;9.07;6.55;;;25.70;94.20;;;;;;5130816;27;20349;-61
2023/01/09 01:01:45;;;;;;;6.63;5.93;;;25.50;94.60;;;;;;5134553;27;20133;-58
2023/01/09 01:09:43;;;;;;;9.43;4.50;;;25.50;94.90;;;;;;5124737;28;20342;-60
2023/01/09 01:12:10;;;;;;;5.38;3.63;;;25.50;94.80;;;;;;5123793;28;20015;-54
2023/01/09 01:14:37;;;;;;;8.90;3.53;;;25.60;94.80;;;;;;5124760;28;20054;-58
2023/01/09 01:17:05;;;;;;;7.53;4.93;;;25.60;94.70;;;;;;5124437;28;20011;-58
2023/01/09 01:19:33;;;;;;;9.15;5.60;;;25.70;94.60;;;;;;5124315;28;20040;-55
2023/01/09 01:22:00;;;;;;;7.70;5.00;;;25.70;94.50;;;;;;5124789;28;20072;-56
2023/01/09 01:24:27;;;;;;;9.35;6.00;;;25.70;94.50;;;;;;5125221;28;20031;-56
2023/01/09 01:26:54;;;;;;;7.38;5.15;;;25.70;94.50;;;;;;5124548;28;20032;-55
2023/01/09 01:29:21;;;;;;;8.75;4.80;;;25.70;94.70;;;;;;5124985;28;20028;-58
2023/01/09 01:31:47;;;;;;;8.93;4.32;;;25.70;94.50;;;;;;5124620;28;20071;-57
2023/01/09 01:34:14;;;;;;;8.93;4.00;;;25.70;94.40;;;;;;5124783;28;20028;-55
2023/01/09 01:36:40;;;;;;;8.32;4.40;;;25.80;94.40;;;;;;5124503;28;20016;-54
2023/01/09 01:39:07;;;;;;;6.57;4.60;;;25.70;94.30;;;;;;5124921;28;20034;-55
2023/01/09 01:41:33;;;;;;;8.55;4.60;;;25.80;94.40;;;;;;5124302;28;20094;-57
2023/01/09 01:44:01;;;;;;;7.63;4.00;;;25.70;94.30;;;;;;5124855;28;20054;-60
2023/01/09 01:46:30;;;;;;;7.90;4.35;;;25.80;94.30;;;;;;5124406;28;20314;-56
2023/01/09 01:49:11;;;;;;;12.05;4.00;;;25.80;94.30;;;;;;5106123;28;20339;-61
2023/01/09 01:51:50;;;;;;;10.63;3.72;;;25.80;94.30;;;;;;5124455;28;20059;-57
2023/01/09 01:54:29;;;;;;;11.68;3.38;;;25.70;94.20;;;;;;5124706;28;20022;-60
2023/01/09 01:57:01;;;;;;;5.85;2.80;;;25.70;94.20;;;;;;5124376;28;20042;-63
2023/01/09 01:59:54;;;;;;;11.00;2.92;;;25.70;94.20;;;;;;5124247;28;20023;-55
2023/01/09 02:02:26;;;;;;;12.43;3.50;;;25.70;94.30;;;;;;5124295;28;20126;-56
2023/01/09 02:05:00;;;;;;;13.90;3.72;;;25.70;94.30;;;;;;5124282;28;20068;-58
2023/01/09 02:07:27;;;;;;;15.20;4.03;;;25.70;94.40;;;;;;5124101;28;20035;-57
2023/01/09 02:09:54;;;;;;;14.80;3.80;;;25.70;94.40;;;;;;5124009;28;20011;-55
2023/01/09 02:12:24;;;;;;;7.72;3.40;;;25.70;94.40;;;;;;5124235;28;20079;-56
2023/01/09 02:14:58;;;;;;;9.55;3.30;;;25.70;94.40;;;;;;5124098;28;20335;-54
2023/01/09 02:17:50;;;;;;;13.05;3.50;;;25.70;94.40;;;;;;5125559;28;20052;-55
2023/01/09 02:20:31;;;;;;;;;;;25.60;94.70;;;;;;5119947;28;20284;-49
2023/01/09 02:23:15;;;;;;;11.00;3.30;;;25.30;95.10;;;;;;5112873;28;19908;-56
2023/01/09 02:26:10;;;;;;;6.28;3.38;;;25.10;95.50;;;;;;5103676;28;20024;-55
2023/01/09 02:28:55;;;;;;;5.00;3.00;;;25.00;95.90;;;;;;5113966;28;20032;-55
2023/01/09 02:31:40;;;;;;;8.82;2.90;;;24.90;96.10;;;;;;5105745;28;20020;-53
2023/01/09 02:34:25;;;;;;;9.70;8.15;;;24.80;96.30;;;;;;5136526;27;20019;-55
2023/01/09 02:37:07;;;;;;;10.93;9.23;;;24.80;96.40;;;;;;5148640;27;20058;-53
2023/01/09 02:40:12;;;;;;;10.98;9.80;;;24.70;96.60;;;;;;5147777;27;20027;-52
2023/01/09 02:42:40;;;;;;;19.73;17.73;;;24.70;96.60;;;;;;5146693;27;20035;-51
2023/01/09 02:45:07;;;;;;;9.07;8.27;;;24.70;96.70;;;;;;5146884;27;20067;-54
2023/01/09 02:47:45;;;;;;;8.82;5.63;;;24.60;96.70;;;;;;5129775;27;20297;-53
2023/01/09 02:50:36;;;;;;;10.07;6.57;;;24.60;96.70;;;;;;5111976;28;20246;-51
2023/01/09 02:53:26;;;;;;;11.27;9.00;;;24.70;96.80;;;;;;5128076;27;20065;-54
2023/01/09 02:56:19;;;;;;;11.45;8.93;;;24.80;96.50;;;;;;5089113;28;20043;-53
2023/01/09 02:59:16;;;;;;;9.50;6.72;;;24.90;96.20;;;;;;5116896;28;20063;-51
2023/01/09 03:02:09;;;;;;;5.93;5.30;;;25.00;96.00;;;;;;5106800;28;20332;-51
2023/01/09 03:04:45;;;;;;;5.18;3.85;;;25.10;95.90;;;;;;5106842;28;20061;-51
2023/01/09 03:07:24;;;;;;;9.50;3.70;;;25.20;95.70;;;;;;5106806;28;20236;-51
2023/01/09 03:09:59;;;;;;;4.97;3.30;;;25.20;95.60;;;;;;5106682;28;20055;-51
2023/01/09 03:12:30;;;;;;;5.03;2.90;;;25.30;95.70;;;;;;5107002;28;20081;-50
2023/01/09 03:15:00;;;;;;;7.25;2.70;;;25.30;95.40;;;;;;5106577;28;20024;-50
2023/01/09 03:17:47;;;;;;;4.65;2.78;;;25.30;95.30;;;;;;5107075;28;20141;-51
2023/01/09 03:20:19;;;;;;;3.80;2.33;;;25.40;95.20;;;;;;5096551;28;20328;-51
2023/01/09 03:22:56;;;;;;;4.80;2.00;;;25.40;95.20;;;;;;5086558;28;20044;-51
2023/01/09 03:25:24;;;;;;;3.60;2.40;;;25.40;95.10;;;;;;5086458;28;20055;-55
2023/01/09 03:28:07;;;;;;;5.78;2.38;;;25.40;95.00;;;;;;5085791;28;20132;-59
2023/01/09 03:30:36;;;;;;;5.32;2.30;;;25.40;94.90;;;;;;5095441;28;20031;-53
2023/01/09 03:33:02;;;;;;;5.07;2.00;;;25.50;94.90;;;;;;5106176;28;20036;-53
2023/01/09 03:35:29;;;;;;;5.38;2.03;;;25.50;94.80;;;;;;5106415;28;20079;-52
2023/01/09 03:37:55;;;;;;;5.35;2.30;;;25.50;94.80;;;;;;5106624;28;20036;-54
2023/01/09 03:40:22;;;;;;;4.88;1.98;;;25.50;94.80;;;;;;5106170;28;20035;-51
2023/01/09 03:42:49;;;;;;;4.28;2.20;;;25.50;94.70;;;;;;5105304;28;20042;-52
2023/01/09 03:45:16;;;;;;;3.20;2.20;;;25.50;94.70;;;;;;5105626;28;20063;-53
2023/01/09 03:47:42;;;;;;;3.05;2.08;;;25.50;94.70;;;;;;5106188;28;20308;-51
2023/01/09 03:50:09;;;;;;;4.32;2.20;;;25.50;94.60;;;;;;5106169;28;20276;-58
2023/01/09 03:52:37;;;;;;;6.45;2.00;;;25.60;94.60;;;;;;5106189;28;20038;-52
2023/01/09 03:55:04;;;;;;;6.00;2.13;;;25.60;94.50;;;;;;5106008;28;20095;-52
2023/01/09 03:57:31;;;;;;;5.57;2.10;;;25.60;94.40;;;;;;5095848;28;20062;-52
2023/01/09 03:59:57;;;;;;;4.18;2.13;;;25.60;94.30;;;;;;5106554;28;20307;-52
2023/01/09 04:02:24;;;;;;;5.88;2.10;;;25.60;94.20;;;;;;5108863;28;20046;-50
2023/01/09 04:04:50;;;;;;;3.28;2.03;;;25.60;94.20;;;;;;5106158;28;20103;-52
2023/01/09 04:07:17;;;;;;;3.38;2.00;;;25.60;94.10;;;;;;5105844;28;20093;-54
2023/01/09 04:09:43;;;;;;;6.95;2.13;;;25.60;94.10;;;;;;5105502;28;20095;-59
2023/01/09 04:12:10;;;;;;;2.75;1.80;;;25.60;94.00;;;;;;5105515;28;20012;-57
2023/01/09 04:14:37;;;;;;;3.45;2.20;;;25.60;94.00;;;;;;5105740;28;20066;-57
2023/01/09 04:17:03;;;;;;;3.30;1.75;;;25.60;94.00;;;;;;5105360;28;20024;-53
2023/01/09 04:19:30;;;;;;;4.22;1.88;;;25.60;94.00;;;;;;5105168;28;20036;-54
2023/01/09 04:21:56;;;;;;;3.97;1.90;;;25.60;93.90;;;;;;5105428;28;20035;-54
2023/01/09 04:24:23;;;;;;;4.00;2.00;;;25.60;94.00;;;;;;5105819;28;20020;-51
2023/01/09 04:26:49;;;;;;;3.35;2.00;;;25.70;94.00;;;;;;5105164;28;20211;-54
2023/01/09 04:29:16;;;;;;;6.30;2.08;;;25.70;93.80;;;;;;5105665;28;20308;-54
2023/01/09 04:31:42;;;;;;;4.85;2.30;;;25.70;93.90;;;;;;5105152;28;20368;-58
2023/01/09 04:34:09;;;;;;;3.70;1.77;;;25.70;93.70;;;;;;5105368;28;20297;-51
2023/01/09 04:36:35;;;;;;;4.18;2.10;;;25.70;93.70;;;;;;5105066;28;20043;-51
2023/01/09 04:39:02;;;;;;;4.35;1.88;;;25.70;93.60;;;;;;5105363;28;20040;-50
2023/01/09 04:44:15;;;;;;;4.55;2.13;;;25.70;93.50;;;;;;5104858;28;20035;-51
2023/01/09 04:46:42;;;;;;;3.85;1.50;;;25.70;93.40;;;;;;5104562;28;20181;-52
2023/01/09 04:49:09;;;;;;;4.55;1.70;;;25.70;93.40;;;;;;5105179;28;20095;-51
2023/01/09 04:51:35;;;;;;;6.13;1.60;;;25.70;93.40;;;;;;5104907;28;20028;-51
2023/01/09 04:54:02;;;;;;;3.10;1.52;;;25.70;93.30;;;;;;5104792;28;20034;-53
2023/01/09 04:56:28;;;;;;;2.17;1.58;;;25.70;93.30;;;;;;5104781;28;20043;-52
2023/01/09 04:58:55;;;;;;;2.90;1.50;;;25.70;93.30;;;;;;5105233;28;20189;-52
2023/01/09 05:01:22;;;;;;;4.63;1.80;;;25.70;93.20;;;;;;5104601;28;20324;-53
2023/01/09 05:03:49;;;;;;;6.90;1.80;;;25.70;93.20;;;;;;5104540;28;20035;-52
2023/01/09 05:06:15;;;;;;;2.05;1.30;;;25.70;93.10;;;;;;5104636;28;20036;-53
2023/01/09 05:08:42;;;;;;;4.72;1.55;;;25.70;93.10;;;;;;5104768;28;20028;-53
2023/01/09 05:11:08;;;;;;;2.60;1.60;;;25.70;93.20;;;;;;5104881;28;20036;-51
2023/01/09 05:13:35;;;;;;;3.15;1.52;;;25.70;93.00;;;;;;5104770;28;20226;-51
2023/01/09 05:16:02;;;;;;;2.80;1.40;;;25.70;93.10;;;;;;5104335;28;20043;-52
2023/01/09 05:18:28;;;;;;;3.90;1.60;;;25.70;93.00;;;;;;5104459;28;20024;-51
2023/01/09 05:20:55;;;;;;;4.25;1.45;;;25.70;92.90;;;;;;5120107;28;20043;-52
2023/01/09 05:23:21;;;;;;;3.03;1.58;;;25.70;93.00;;;;;;5124829;28;20039;-52
2023/01/09 05:25:48;;;;;;;5.38;1.50;;;25.70;93.00;;;;;;5124405;28;20076;-53
2023/01/09 05:28:14;;;;;;;3.20;1.60;;;25.70;92.90;;;;;;5124811;28;20208;-53
2023/01/09 05:30:41;;;;;;;2.97;1.52;;;25.70;92.80;;;;;;5124811;28;20028;-53
2023/01/09 05:33:08;;;;;;;4.45;1.50;;;25.70;92.80;;;;;;5124641;28;20028;-53
2023/01/09 05:35:34;;;;;;;3.28;1.50;;;25.70;93.10;;;;;;5124618;28;20311;-55
2023/01/09 05:38:01;;;;;;;4.38;1.60;;;25.70;92.80;;;;;;5124630;28;20026;-53
2023/01/09 05:40:27;;;;;;;3.20;1.10;;;25.70;92.70;;;;;;5124309;28;20027;-53
2023/01/09 05:42:54;;;;;;;2.80;1.10;;;25.70;92.70;;;;;;5124518;28;20063;-53
2023/01/09 05:45:20;;;;;;;2.70;1.40;;;25.70;92.70;;;;;;5124268;28;20094;-52
2023/01/09 05:47:47;;;;;;;3.97;1.48;;;25.70;92.60;;;;;;5124389;28;20031;-53
2023/01/09 05:50:14;;;;;;;4.30;1.33;;;25.70;92.70;;;;;;5124533;28;20047;-51
2023/01/09 05:52:40;;;;;;;6.65;1.52;;;25.70;92.50;;;;;;5124601;28;20030;-51
2023/01/09 05:55:07;;;;;;;2.22;1.35;;;25.70;92.50;;;;;;5124319;28;20031;-53
2023/01/09 05:57:34;;;;;;;2.53;1.20;;;25.70;92.60;;;;;;5124445;28;20027;-51
2023/01/09 06:00:01;;;;;;;5.38;1.35;;;25.70;92.50;;;;;;5124294;28;20327;-58
2023/01/09 06:02:27;;;;;;;3.35;1.70;;;25.70;92.40;;;;;;5124243;28;20035;-51
2023/01/09 06:04:54;;;;;;;2.10;1.40;;;25.70;92.40;;;;;;5124269;28;20038;-51
2023/01/09 06:07:20;;;;;;;2.42;1.50;;;25.70;92.30;;;;;;5128240;28;20090;-52
2023/01/09 06:09:47;;;;;;;2.45;1.00;;;25.70;92.30;;;;;;5128371;28;20031;-48
2023/01/09 06:12:13;;;;;;;3.85;1.60;;;25.70;92.40;;;;;;5128523;28;20094;-51
2023/01/09 06:14:40;;;;;;;2.95;1.50;;;25.70;92.30;;;;;;5128575;28;20023;-51
2023/01/09 06:17:07;;;;;;;5.55;1.70;;;25.70;92.30;;;;;;5128307;28;20020;-49
2023/01/09 06:19:34;;;;;;;3.15;1.30;;;25.70;92.40;;;;;;5128086;28;20150;-51
2023/01/09 06:22:00;;;;;;;2.80;1.05;;;25.70;92.30;;;;;;5128214;28;20069;-49
2023/01/09 06:24:27;;;;;;;4.43;1.38;;;25.70;92.20;;;;;;5128695;28;20043;-51
2023/01/09 06:26:53;;;;;;;1.42;1.13;;;25.70;92.20;;;;;;5128109;28;20039;-45
2023/01/09 06:29:20;;;;;;;3.00;1.30;;;25.70;92.20;;;;;;5128428;28;20296;-50
2023/01/09 06:31:46;;;;;;;3.13;1.35;;;25.60;92.20;;;;;;5128109;28;20127;-51
2023/01/09 06:34:13;;;;;;;3.22;1.42;;;25.70;92.30;;;;;;5128604;28;20268;-51
2023/01/09 06:36:39;;;;;;;3.97;1.10;;;25.70;92.20;;;;;;5128215;28;20266;-56
2023/01/09 06:39:06;;;;;;;3.13;1.40;;;25.70;92.10;;;;;;5128377;28;20052;-55
2023/01/09 06:41:33;;;;;;;3.28;1.20;;;25.70;92.10;;;;;;5127681;28;20023;-51
2023/01/09 06:43:59;;;;;;;2.83;1.27;;;25.70;92.10;;;;;;5128099;28;20101;-56
2023/01/09 06:46:26;;;;;;;3.00;1.23;;;25.70;92.20;;;;;;5127711;28;20027;-58
2023/01/09 06:48:52;;;;;;;2.72;1.40;;;25.70;92.10;;;;;;5127677;28;20035;-51
2023/01/09 06:51:19;;;;;;;2.15;1.33;;;25.70;92.00;;;;;;5127753;28;20057;-51
2023/01/09 06:53:45;;;;;;;2.35;1.20;;;25.70;92.10;;;;;;5128071;28;20016;-51
2023/01/09 06:56:12;;;;;;;4.97;1.60;;;25.70;92.10;;;;;;5127675;28;20300;-53
2023/01/09 06:58:39;;;;;;;3.58;1.33;;;25.70;92.10;;;;;;5127816;28;20031;-58
2023/01/09 07:01:05;;;;;;;2.55;1.33;;;25.70;92.00;;;;;;5127742;28;20099;-58
2023/01/09 07:03:32;;;;;;;1.88;1.20;;;25.70;92.00;;;;;;5127582;28;20027;-52
2023/01/09 07:05:58;;;;;;;4.63;1.33;;;25.70;92.10;;;;;;5127525;28;20059;-52
2023/01/09 07:08:25;;;;;;;2.40;1.10;;;25.70;92.00;;;;;;5127460;28;20072;-52
2023/01/09 07:10:51;;;;;;;1.98;1.23;;;25.70;92.00;;;;;;5127318;28;20027;-52
2023/01/09 07:13:18;;;;;;;2.15;1.20;;;25.70;92.00;;;;;;5127629;28;20031;-52
2023/01/09 07:15:44;;;;;;;3.67;1.30;;;25.70;91.90;;;;;;5126369;28;20027;-52
2023/01/09 07:18:11;;;;;;;2.97;1.17;;;25.70;92.00;;;;;;5127101;28;20023;-52
2023/01/09 07:20:41;;;;;;;3.28;1.40;;;25.70;91.90;;;;;;5126880;28;20071;-51
2023/01/09 07:23:14;;;;;;;2.28;1.17;;;25.70;92.00;;;;;;5125502;28;20047;-53
2023/01/09 07:25:44;;;;;;;2.22;1.38;;;25.70;92.00;;;;;;5126968;28;20323;-53
2023/01/09 07:28:10;;;;;;;3.72;1.40;;;25.60;92.10;;;;;;5127260;28;20031;-52
2023/01/09 07:30:37;;;;;;;3.30;1.25;;;25.70;92.10;;;;;;5126075;28;20031;-49
2023/01/09 07:33:03;;;;;;;4.78;1.33;;;25.70;92.20;;;;;;5109587;28;20016;-53
2023/01/09 07:35:30;;;;;;;3.20;1.52;;;25.70;92.10;;;;;;5104749;28;20028;-51
2023/01/09 07:37:57;;;;;;;2.13;1.10;;;25.70;92.10;;;;;;5104882;28;20039;-53
2023/01/09 07:40:23;;;;;;;3.75;1.20;;;25.70;92.10;;;;;;5104469;28;20020;-54
2023/01/09 07:42:52;;;;;;;4.82;1.63;;;25.70;92.10;;;;;;5104599;28;20099;-48
2023/01/09 07:45:19;;;;;;;4.28;1.42;;;25.70;92.10;;;;;;5104462;28;20016;-52
2023/01/09 07:47:46;;;;;;;3.92;1.10;;;25.70;91.90;;;;;;5104402;28;20039;-54
2023/01/09 07:50:13;;;;;;;3.95;1.50;;;25.70;91.90;;;;;;5104585;28;20036;-52
2023/01/09 07:52:39;;;;;;;3.20;1.15;;;25.70;91.90;;;;;;5104435;28;20027;-53
2023/01/09 07:55:07;;;;;;;6.50;1.80;;;25.60;91.90;;;;;;5105355;28;20045;-54
2023/01/09 07:57:34;;;;;;;2.80;1.23;;;25.70;91.90;;;;;;5106254;28;20036;-51
2023/01/09 08:00:02;;;;;;;4.05;1.13;;;25.60;91.90;;;;;;5105867;28;20020;-53
2023/01/09 08:02:29;;;;;;;3.22;1.30;;;25.60;91.90;;;;;;5105684;28;20246;-56
2023/01/09 08:04:55;;;;;;;4.88;1.40;;;25.60;91.90;;;;;;5105862;28;20032;-56
2023/01/09 08:07:22;;;;;;;3.22;1.35;;;25.60;91.80;;;;;;5124751;28;20061;-51
2023/01/09 08:09:48;;;;;;;4.93;1.17;;;25.60;91.80;;;;;;5125905;28;20249;-52
2023/01/09 08:12:15;;;;;;;3.22;1.20;;;25.60;91.80;;;;;;5125512;28;20047;-53
2023/01/09 08:14:42;;;;;;;2.55;1.20;;;25.60;91.80;;;;;;5126120;28;20081;-54
2023/01/09 08:17:10;;;;;;;1.85;0.85;;;25.60;91.80;;;;;;5125859;28;20364;-54
2023/01/09 08:19:37;;;;;;;5.25;1.23;;;25.50;91.80;;;;;;5125635;28;20114;-55
2023/01/09 08:22:03;;;;;;;3.65;1.13;;;25.60;91.70;;;;;;5125623;28;20216;-52
2023/01/09 08:24:31;;;;;;;2.17;1.10;;;25.60;91.70;;;;;;5106820;28;20019;-51
2023/01/09 08:26:58;;;;;;;1.70;1.15;;;25.50;91.60;;;;;;5125469;28;20050;-52
2023/01/09 08:29:25;;;;;;;4.78;1.10;;;25.50;91.50;;;;;;5125515;28;20095;-52
2023/01/09 08:31:51;;;;;;;2.53;1.00;;;25.50;91.50;;;;;;5125620;28;20031;-49
2023/01/09 08:34:18;;;;;;;1.50;1.10;;;25.50;91.50;;;;;;5126164;28;20363;-52
2023/01/09 08:36:44;;;;;;;2.30;1.13;;;25.50;91.50;;;;;;5125672;28;20034;-52
2023/01/09 08:39:11;;;;;;;2.88;0.90;;;25.50;91.50;;;;;;5125975;28;20053;-56
2023/01/09 08:47:23;;;;;;;4.03;1.13;;;25.50;91.40;;;;;;5080351;28;20098;-48
2023/01/09 08:49:50;;;;;;;4.93;0.90;;;25.50;91.40;;;;;;5125231;28;20045;-50
2023/01/09 08:52:16;;;;;;;3.03;0.88;;;25.50;91.40;;;;;;5125449;28;20031;-55
2023/01/09 08:54:43;;;;;;;4.45;0.93;;;25.50;91.20;;;;;;5125192;28;20068;-50
2023/01/09 08:57:09;;;;;;;3.45;0.90;;;25.50;91.10;;;;;;5124941;28;20058;-53
2023/01/09 08:59:36;;;;;;;2.92;0.98;;;25.60;91.10;;;;;;5125191;28;20350;-60
2023/01/09 09:02:02;;;;;;;5.25;0.75;;;25.50;91.00;;;;;;5124934;28;20092;-58
2023/01/09 09:04:29;;;;;;;2.38;0.70;;;25.50;91.00;;;;;;5124934;28;20077;-58
2023/01/09 09:06:56;;;;;;;3.97;0.70;;;25.50;90.90;;;;;;5124819;28;20027;-60
2023/01/09 09:09:24;;;;;;;1.90;0.80;;;25.50;90.90;;;;;;5125443;28;20040;-56
2023/01/09 09:11:50;;;;;;;5.70;0.95;;;25.50;90.90;;;;;;5124975;28;20311;-53
2023/01/09 09:17:02;;;;;;;2.70;0.90;;;25.50;90.90;;;;;;5124922;28;20077;-55
2023/01/09 09:19:28;;;;;;;4.10;0.90;;;25.50;90.90;;;;;;5124665;28;20050;-54
2023/01/09 09:21:55;;;;;;;3.88;0.80;;;25.50;90.90;;;;;;5124864;28;20041;-54
2023/01/09 09:24:22;;;;;;;3.47;0.57;;;25.50;90.90;;;;;;5125263;28;20061;-49
2023/01/09 09:26:48;;;;;;;2.13;0.90;;;25.50;90.90;;;;;;5124609;28;20024;-51
2023/01/09 09:29:15;;;;;;;3.10;0.85;;;25.50;90.90;;;;;;5123612;28;20028;-54
2023/01/09 09:31:41;;;;;;;2.47;0.70;;;25.50;90.80;;;;;;5121078;28;20087;-51
2023/01/09 09:34:09;;;;;;;4.00;0.77;;;25.50;90.70;;;;;;5124949;28;20032;-52
2023/01/09 09:36:35;;;;;;;2.88;0.70;;;25.50;90.70;;;;;;5124530;28;20020;-54
2023/01/09 09:39:02;;;;;;;3.00;0.70;;;25.50;90.70;;;;;;5125063;28;20077;-59
2023/01/09 09:44:43;;;;;;;2.85;0.68;;;25.50;90.70;;;;;;5125083;28;20038;-50
2023/01/09 09:47:36;;;;;;;4.28;0.77;;;25.50;90.50;;;;;;5124502;28;20035;-52
2023/01/09 09:50:17;;;;;;;0.70;0.50;;;25.50;90.40;;;;;;5124351;28;20062;-47
2023/01/09 09:52:50;;;;;;;0.70;0.55;;;25.50;90.30;;;;;;5124382;28;20032;-55
2023/01/09 09:55:26;;;;;;;2.60;0.77;;;25.50;90.20;;;;;;5124264;28;20011;-58
2023/01/09 09:57:54;;;;;;;4.68;0.75;;;25.50;90.20;;;;;;5121555;28;20066;-53
2023/01/09 10:00:23;;;;;;;1.73;0.60;;;25.50;90.30;;;;;;5124221;28;20212;-55
2023/01/09 10:03:06;;;;;;;6.72;0.90;;;25.50;90.40;;;;;;5124144;28;20032;-52
2023/01/09 10:05:52;;;;;;;4.78;1.08;;;25.50;90.50;;;;;;5124046;28;20020;-54
2023/01/09 10:08:50;;;;;;;5.80;1.10;;;25.50;90.70;;;;;;5123281;28;20115;-49
2023/01/09 10:11:34;;;;;;;3.78;0.80;;;25.50;90.80;;;;;;5119253;28;20069;-51
2023/01/09 10:14:04;;;;;;;3.88;1.02;;;25.50;90.90;;;;;;5123680;28;20309;-52
2023/01/09 10:16:41;;;;;;;3.60;1.00;;;25.50;91.00;;;;;;5121676;28;20114;-52
2023/01/09 10:19:26;;;;;;;2.97;0.95;;;25.50;91.10;;;;;;5120648;28;20035;-51
2023/01/09 10:22:15;;;;;;;1.92;0.68;;;25.50;91.10;;;;;;5124369;28;20030;-54
2023/01/09 10:24:54;;;;;;;4.07;1.10;;;25.40;91.10;;;;;;5123819;28;20054;-54
2023/01/09 10:27:53;;;;;;;6.00;1.20;;;25.40;91.20;;;;;;5124132;28;20029;-52
2023/01/09 10:30:41;;;;;;;5.20;1.00;;;25.50;91.30;;;;;;5110733;28;20110;-51
2023/01/09 10:33:17;;;;;;;3.38;1.00;;;25.40;91.30;;;;;;5124211;28;20031;-52
2023/01/09 10:36:16;;;;;;;6.30;1.00;;;25.40;91.30;;;;;;5124204;28;20093;-53
2023/01/09 10:38:46;;;;;;;5.45;0.85;;;25.40;91.30;;;;;;5124187;28;20023;-52
2023/01/09 10:41:30;;;;;;;4.10;1.10;;;25.40;91.30;;;;;;5115755;28;20028;-55
2023/01/09 10:44:19;;;;;;;5.30;1.13;;;25.40;91.30;;;;;;5118179;28;20334;-55
2023/01/09 10:46:52;;;;;;;4.53;1.27;;;25.40;91.40;;;;;;5122875;28;20039;-51
2023/01/09 10:49:21;;;;;;;3.75;1.10;;;25.40;91.40;;;;;;5110741;28;20070;-48
2023/01/09 10:51:57;;;;;;;4.60;1.33;;;25.40;91.40;;;;;;5125024;28;20303;-51
2023/01/09 10:54:24;;;;;;;5.53;1.50;;;25.40;91.40;;;;;;5128183;28;20022;-54
2023/01/09 10:57:01;;;;;;;6.22;1.20;;;25.40;91.50;;;;;;5127580;28;20023;-53
2023/01/09 10:59:29;;;;;;;5.68;1.38;;;25.40;91.50;;;;;;5126527;28;20030;-52
2023/01/09 11:01:56;;;;;;;4.50;1.40;;;25.40;91.50;;;;;;5127318;28;20107;-51
2023/01/09 11:04:28;;;;;;;5.50;1.65;;;25.40;91.50;;;;;;5126611;28;20031;-52
2023/01/09 11:07:00;;;;;;;6.20;1.75;;;25.40;91.60;;;;;;5126650;28;20055;-56
2023/01/09 11:09:26;;;;;;;4.68;1.35;;;25.40;91.60;;;;;;5126331;28;20051;-59
2023/01/09 11:11:53;;;;;;;4.85;1.40;;;25.40;91.60;;;;;;5127011;28;20032;-52
2023/01/09 11:14:29;;;;;;;4.45;1.20;;;25.30;91.60;;;;;;5127696;28;20028;-51
2023/01/09 11:17:03;;;;;;;2.97;1.63;;;25.30;91.60;;;;;;5127195;28;20085;-53
2023/01/09 11:19:32;;;;;;;7.60;1.70;;;25.30;91.60;;;;;;5127066;28;20268;-50
2023/01/09 11:22:16;;;;;;;7.20;1.80;;;25.30;91.70;;;;;;5126598;28;20128;-47
2023/01/09 11:24:43;;;;;;;6.72;1.85;;;25.30;91.80;;;;;;5126975;28;20238;-51
2023/01/09 11:27:13;;;;;;;13.90;1.70;;;25.30;91.80;;;;;;5127033;28;20045;-53
2023/01/09 11:29:40;;;;;;;8.63;1.50;;;25.30;91.80;;;;;;5127022;28;20063;-52
2023/01/09 11:32:23;;;;;;;5.03;1.40;;;25.30;91.80;;;;;;5126951;28;20027;-54
2023/01/09 11:34:50;;;;;;;4.47;1.40;;;25.30;91.80;;;;;;5125475;28;20035;-59
2023/01/09 11:37:29;;;;;;;7.22;1.75;;;25.30;91.80;;;;;;5124797;28;20256;-55
2023/01/09 11:39:58;;;;;;;5.55;1.35;;;25.30;91.80;;;;;;5125509;28;20083;-51
2023/01/09 11:45:16;;;;;;;3.20;1.40;;;25.30;91.70;;;;;;5123947;28;20211;-54
2023/01/09 11:47:44;;;;;;;3.20;1.20;;;25.40;91.70;;;;;;5116227;28;20228;-53
2023/01/09 11:50:21;;;;;;;5.80;1.30;;;25.40;91.70;;;;;;5124695;28;20054;-55
2023/01/09 11:53:19;;;;;;;5.22;1.70;;;25.40;91.60;;;;;;5116503;28;20051;-50
2023/01/09 11:55:50;;;;;;;4.78;1.92;;;25.40;91.50;;;;;;5119260;28;20024;-52
2023/01/09 11:58:21;;;;;;;5.60;1.87;;;25.40;91.60;;;;;;5111523;28;20091;-50
2023/01/09 12:00:59;;;;;;;5.18;1.95;;;25.40;91.50;;;;;;5112854;28;20335;-51
2023/01/09 12:03:35;;;;;;;5.43;2.30;;;25.40;91.50;;;;;;5105049;28;20219;-49
2023/01/09 12:06:30;;;;;;;8.00;3.28;;;25.40;91.50;;;;;;5106135;28;20034;-50
2023/01/09 12:09:06;;;;;;;7.57;3.88;;;25.50;91.50;;;;;;5095517;28;20034;-56
2023/01/09 12:11:47;;;;;;;11.93;5.03;;;25.50;91.50;;;;;;5108250;28;20220;-52
2023/01/09 12:14:41;;;;;;;8.52;4.93;;;25.50;91.50;;;;;;5106375;28;20031;-50
2023/01/09 12:17:39;;;;;;;8.23;4.80;;;25.50;91.50;;;;;;5105395;28;20032;-48
2023/01/09 12:20:15;;;;;;;10.65;4.95;;;25.50;91.60;;;;;;5116642;28;20050;-52
2023/01/09 12:23:05;;;;;;;8.38;4.03;;;25.50;91.60;;;;;;5105462;28;20036;-55
2023/01/09 12:25:43;;;;;;;9.70;4.38;;;25.50;91.70;;;;;;5063934;28;20071;-48
2023/01/09 12:28:34;;;;;;;10.80;4.90;;;25.50;91.80;;;;;;5105396;28;20040;-54
2023/01/09 12:31:07;;;;;;;9.35;5.20;;;25.50;91.80;;;;;;5116709;28;20020;-50
2023/01/09 12:33:55;;;;;;;11.32;5.43;;;25.60;91.80;;;;;;5104985;28;20103;-56
2023/01/09 12:36:40;;;;;;;11.35;5.45;;;25.60;91.80;;;;;;5104962;28;20028;-54
2023/01/09 12:39:25;;;;;;;9.25;5.10;;;25.60;91.80;;;;;;5105508;28;20030;-56
2023/01/09 12:42:31;;;;;;;13.13;5.20;;;25.60;91.80;;;;;;5105094;28;20024;-54
2023/01/09 12:45:00;;;;;;;9.23;4.80;;;25.60;91.80;;;;;;5093722;28;20120;-51
2023/01/09 12:47:36;;;;;;;6.35;4.20;;;25.70;91.90;;;;;;5104922;28;20030;-53
2023/01/09 12:50:08;;;;;;;7.85;4.20;;;25.70;91.90;;;;;;5109351;28;20145;-54
2023/01/09 12:53:02;;;;;;;7.18;3.90;;;25.70;92.00;;;;;;5110940;28;20289;-54
2023/01/09 12:55:36;;;;;;;8.73;3.78;;;25.70;91.90;;;;;;5102551;28;20346;-55
2023/01/09 12:58:31;;;;;;;6.63;3.72;;;25.70;92.00;;;;;;5112456;28;20236;-52
2023/01/09 13:01:00;;;;;;;9.38;4.25;;;25.70;91.90;;;;;;5109080;28;20032;-52
2023/01/09 13:04:12;;;;;;;7.15;3.63;;;25.80;91.90;;;;;;5120593;28;20028;-56
2023/01/09 13:06:45;;;;;;;6.28;3.47;;;25.80;92.00;;;;;;5093978;28;20062;-52
2023/01/09 13:09:31;;;;;;;5.55;3.10;;;25.80;92.00;;;;;;5113970;28;20035;-53
2023/01/09 13:12:20;;;;;;;7.25;2.80;;;25.80;92.00;;;;;;5110656;28;20094;-55
2023/01/09 13:15:14;;;;;;;5.18;2.88;;;25.90;92.10;;;;;;5110183;28;20254;-53
2023/01/09 13:17:53;;;;;;;5.53;2.83;;;25.90;92.00;;;;;;5109243;28;20044;-52
2023/01/09 13:20:45;;;;;;;4.85;2.58;;;25.90;92.10;;;;;;5118578;28;20036;-57
2023/01/09 13:23:21;;;;;;;;;;;25.90;92.00;;;;;;5114386;28;20118;-54
2023/01/09 13:25:52;;;;;;;4.47;2.70;;;25.90;92.10;;;;;;5109090;28;19904;-56
2023/01/09 13:28:27;;;;;;;4.88;2.30;;;25.90;92.10;;;;;;5113254;28;20040;-55
2023/01/09 13:31:12;;;;;;;6.78;2.10;;;25.90;92.10;;;;;;5113765;28;20334;-54
2023/01/09 13:33:49;;;;;;;3.40;2.03;;;25.90;92.10;;;;;;5104125;28;20092;-54